Time;durP1;ratioP1;P1;durP2;ratioP2;P2;SDS_P1;SDS_P2;PMS_P1;PMS_P2;Temp;Humidity;BMP_temperature;BMP_pressure;BME280_temperature;BME280_humidity;BME280_pressure;Samples;Min_cycle;Max_cycle;Signal;HPM_P1;HPM_P2
2023/09/29 00:00:20;;;;;;;40.90;30.33;;;;;;;;;;2105133;28;20036;-65
2023/09/29 00:01:39;;;;;;;36.63;28.88;;;;;;;;;;2103264;28;20944;-65
2023/09/29 00:02:58;;;;;;;32.28;28.20;;;;;;;;;;2104958;28;20036;-65
2023/09/29 00:04:17;;;;;;;37.92;29.15;;;;;;;;;;2104236;28;20484;-65
2023/09/29 00:05:35;;;;;;;37.22;29.38;;;;;;;;;;2105414;28;20035;-65
2023/09/29 00:06:54;;;;;;;41.67;30.33;;;;;;;;;;2102969;28;20116;-65
2023/09/29 00:08:16;;;;;;;33.80;28.40;;;;;;;;;;2104081;28;20921;-65
2023/09/29 00:09:35;;;;;;;35.40;28.10;;;;;;;;;;2104856;28;20481;-65
2023/09/29 00:10:54;;;;;;;36.58;28.27;;;;;;;;;;2105049;28;20028;-65
2023/09/29 00:12:13;;;;;;;39.72;28.90;;;;;;;;;;2105054;28;20036;-65
2023/09/29 00:13:32;;;;;;;38.78;29.20;;;;;;;;;;2104096;28;20024;-65
2023/09/29 00:14:52;;;;;;;40.83;29.63;;;;;;;;;;2105325;28;20419;-65
2023/09/29 00:16:11;;;;;;;38.20;28.20;;;;;;;;;;2104806;28;20031;-65
2023/09/29 00:17:31;;;;;;;38.08;27.83;;;;;;;;;;2104095;28;20033;-65
2023/09/29 00:18:50;;;;;;;38.45;29.02;;;;;;;;;;2103653;28;20050;-65
2023/09/29 00:20:23;;;;;;;34.28;27.50;;;;;;;;;;2105501;28;20036;-65
2023/09/29 00:21:42;;;;;;;35.60;29.27;;;;;;;;;;2105362;28;20028;-65
2023/09/29 00:23:01;;;;;;;35.40;27.90;;;;;;;;;;2105196;28;20491;-65
2023/09/29 00:24:20;;;;;;;37.15;27.52;;;;;;;;;;2101417;28;20048;-65
2023/09/29 00:25:39;;;;;;;33.97;27.27;;;;;;;;;;2102023;28;20017;-65
2023/09/29 00:26:58;;;;;;;38.17;27.40;;;;;;;;;;2104779;28;20032;-65
2023/09/29 00:28:17;;;;;;;37.60;27.92;;;;;;;;;;2103777;28;20032;-65
2023/09/29 00:29:36;;;;;;;36.13;27.13;;;;;;;;;;2104986;28;20032;-65
2023/09/29 00:30:55;;;;;;;34.53;27.00;;;;;;;;;;2104708;28;20023;-65
2023/09/29 00:32:14;;;;;;;34.05;27.50;;;;;;;;;;2105045;28;20103;-65
2023/09/29 00:33:33;;;;;;;35.03;27.92;;;;;;;;;;2105437;28;20037;-65
2023/09/29 00:34:52;;;;;;;34.13;27.38;;;;;;;;;;2105397;28;20027;-65
2023/09/29 00:36:14;;;;;;;36.78;26.98;;;;;;;;;;2105146;28;20097;-65
2023/09/29 00:37:33;;;;;;;30.98;26.67;;;;;;;;;;2104346;28;20449;-65
2023/09/29 00:38:52;;;;;;;35.85;26.77;;;;;;;;;;2104288;28;20027;-65
2023/09/29 00:40:12;;;;;;;33.95;27.33;;;;;;;;;;2104442;28;20115;-65
2023/09/29 00:41:31;;;;;;;38.05;25.92;;;;;;;;;;2104708;28;20028;-65
2023/09/29 00:42:50;;;;;;;34.15;27.10;;;;;;;;;;2103052;28;20027;-65
2023/09/29 00:44:10;;;;;;;30.50;25.52;;;;;;;;;;2102979;28;20028;-65
2023/09/29 00:45:29;;;;;;;32.13;25.77;;;;;;;;;;2104508;28;20025;-65
2023/09/29 00:46:48;;;;;;;34.03;25.17;;;;;;;;;;2104673;28;20024;-65
2023/09/29 00:48:09;;;;;;;32.10;26.05;;;;;;;;;;2103844;28;20070;-65
2023/09/29 00:49:29;;;;;;;33.45;25.73;;;;;;;;;;2102827;28;20024;-65
2023/09/29 00:50:48;;;;;;;31.20;24.98;;;;;;;;;;2103627;28;20032;-65
2023/09/29 00:52:08;;;;;;;32.15;25.67;;;;;;;;;;2104280;28;20045;-65
2023/09/29 00:53:28;;;;;;;36.33;27.60;;;;;;;;;;2103974;28;20053;-65
2023/09/29 00:54:47;;;;;;;37.67;26.58;;;;;;;;;;2103915;28;20024;-65
2023/09/29 00:56:06;;;;;;;36.40;27.08;;;;;;;;;;2105878;28;20024;-65
2023/09/29 00:57:27;;;;;;;32.42;24.42;;;;;;;;;;2104092;28;20024;-65
2023/09/29 00:58:46;;;;;;;29.70;25.40;;;;;;;;;;2103198;28;20162;-65
2023/09/29 01:00:52;;;;;;;32.28;24.38;;;;;;;;;;2104174;28;20792;-65
2023/09/29 01:01:47;;;;;;;33.38;24.88;;;;;;;;;;2103482;28;20028;-65
2023/09/29 01:03:09;;;;;;;35.38;26.17;;;;;;;;;;2104684;28;20118;-64
2023/09/29 01:04:29;;;;;;;27.63;23.60;;;;;;;;;;2104872;28;20107;-65
2023/09/29 01:05:49;;;;;;;35.10;26.02;;;;;;;;;;2104348;28;20016;-65
2023/09/29 01:07:09;;;;;;;32.05;24.88;;;;;;;;;;2104240;28;20768;-65
2023/09/29 01:08:29;;;;;;;30.35;24.52;;;;;;;;;;2101740;28;20028;-65
2023/09/29 01:09:48;;;;;;;29.80;23.70;;;;;;;;;;2103418;28;20099;-65
2023/09/29 01:11:08;;;;;;;30.50;24.88;;;;;;;;;;2103318;28;20024;-65
2023/09/29 01:12:27;;;;;;;26.30;22.42;;;;;;;;;;2104463;28;20036;-65
2023/09/29 01:13:46;;;;;;;29.25;23.20;;;;;;;;;;2102902;28;20028;-65
2023/09/29 01:15:06;;;;;;;31.63;26.30;;;;;;;;;;2102161;28;20508;-65
2023/09/29 01:16:25;;;;;;;29.17;23.25;;;;;;;;;;2102527;28;20408;-65
2023/09/29 01:17:44;;;;;;;29.80;22.85;;;;;;;;;;2103640;28;20044;-64
2023/09/29 01:19:02;;;;;;;26.92;22.38;;;;;;;;;;2104480;28;20396;-66
2023/09/29 01:20:28;;;;;;;25.90;23.10;;;;;;;;;;2102954;28;20481;-65
2023/09/29 01:21:47;;;;;;;30.05;23.73;;;;;;;;;;2104135;28;20417;-65
2023/09/29 01:23:07;;;;;;;30.05;23.48;;;;;;;;;;2102791;28;20031;-65
2023/09/29 01:24:26;;;;;;;27.73;23.02;;;;;;;;;;2105158;28;20036;-65
2023/09/29 01:25:46;;;;;;;31.40;23.55;;;;;;;;;;2104023;28;20020;-65
2023/09/29 01:27:05;;;;;;;25.10;21.75;;;;;;;;;;2103486;28;20020;-64
2023/09/29 01:28:24;;;;;;;25.38;22.42;;;;;;;;;;2103181;28;20055;-65
2023/09/29 01:29:43;;;;;;;27.95;22.10;;;;;;;;;;2104823;28;20032;-65
2023/09/29 01:31:04;;;;;;;28.15;22.25;;;;;;;;;;2103276;28;20020;-65
2023/09/29 01:32:23;;;;;;;25.17;21.60;;;;;;;;;;2103475;28;20028;-65
2023/09/29 01:33:42;;;;;;;23.88;20.33;;;;;;;;;;2103472;28;20107;-65
2023/09/29 01:35:02;;;;;;;27.45;20.55;;;;;;;;;;2103520;28;20508;-65
2023/09/29 01:36:21;;;;;;;29.98;21.40;;;;;;;;;;2098725;28;20032;-65
2023/09/29 01:37:42;;;;;;;24.25;19.65;;;;;;;;;;2102628;28;20407;-65
2023/09/29 01:39:03;;;;;;;24.35;20.88;;;;;;;;;;2103425;28;20111;-65
2023/09/29 01:40:22;;;;;;;25.75;20.65;;;;;;;;;;2103302;28;20488;-65
2023/09/29 01:41:43;;;;;;;32.08;21.42;;;;;;;;;;2102993;28;20388;-65
2023/09/29 01:43:02;;;;;;;23.50;18.92;;;;;;;;;;2104114;28;20127;-65
2023/09/29 01:44:21;;;;;;;22.50;18.90;;;;;;;;;;2104524;28;20020;-65
2023/09/29 01:45:40;;;;;;;24.88;19.02;;;;;;;;;;2103188;28;20028;-65
2023/09/29 01:47:00;;;;;;;22.38;19.02;;;;;;;;;;2089502;28;20047;-65
2023/09/29 01:48:19;;;;;;;26.60;19.17;;;;;;;;;;2101552;28;20025;-64
2023/09/29 01:49:38;;;;;;;20.50;17.77;;;;;;;;;;2101655;28;20431;-65
2023/09/29 01:50:57;;;;;;;24.15;19.50;;;;;;;;;;2099174;28;20028;-65
2023/09/29 01:52:16;;;;;;;23.10;18.85;;;;;;;;;;2101293;28;20036;-65
2023/09/29 01:53:35;;;;;;;25.85;19.25;;;;;;;;;;2102534;28;20116;-64
2023/09/29 01:54:58;;;;;;;25.90;18.83;;;;;;;;;;2100048;28;20052;-65
2023/09/29 01:56:17;;;;;;;22.77;18.25;;;;;;;;;;2100511;28;20044;-65
2023/09/29 01:57:37;;;;;;;21.30;18.27;;;;;;;;;;2098983;28;20024;-65
2023/09/29 01:58:58;;;;;;;27.40;18.83;;;;;;;;;;2103413;28;20016;-64
2023/09/29 02:00:22;;;;;;;26.77;18.58;;;;;;;;;;2103292;28;20091;-66
2023/09/29 02:01:41;;;;;;;21.17;17.65;;;;;;;;;;2102569;28;20033;-65
2023/09/29 02:03:00;;;;;;;21.25;17.20;;;;;;;;;;2102549;28;20032;-64
2023/09/29 02:04:19;;;;;;;23.38;17.30;;;;;;;;;;2102872;28;20036;-64
2023/09/29 02:05:38;;;;;;;20.83;17.60;;;;;;;;;;2102763;28;20497;-64
2023/09/29 02:06:57;;;;;;;21.70;16.42;;;;;;;;;;2105089;28;20055;-64
2023/09/29 02:08:16;;;;;;;20.60;16.15;;;;;;;;;;2102291;28;20028;-65
2023/09/29 02:09:35;;;;;;;24.67;18.10;;;;;;;;;;2105126;28;20038;-65
2023/09/29 02:10:53;;;;;;;21.40;17.17;;;;;;;;;;2103930;28;20381;-65
2023/09/29 02:12:14;;;;;;;22.73;17.42;;;;;;;;;;2104073;28;20393;-64
2023/09/29 02:13:33;;;;;;;21.00;16.98;;;;;;;;;;2104251;28;20023;-64
2023/09/29 02:14:52;;;;;;;20.05;16.85;;;;;;;;;;2103739;28;20024;-65
2023/09/29 02:16:12;;;;;;;20.42;17.08;;;;;;;;;;2102721;28;20489;-65
2023/09/29 02:17:31;;;;;;;21.88;16.85;;;;;;;;;;2102162;28;20510;-65
2023/09/29 02:18:50;;;;;;;21.30;16.73;;;;;;;;;;2101843;28;20132;-65
2023/09/29 02:20:14;;;;;;;19.38;17.30;;;;;;;;;;2102093;28;20032;-64
2023/09/29 02:21:33;;;;;;;20.20;17.20;;;;;;;;;;2100162;28;20036;-65
2023/09/29 02:22:55;;;;;;;22.25;17.23;;;;;;;;;;2102301;28;20016;-65
2023/09/29 02:24:14;;;;;;;21.00;17.27;;;;;;;;;;2104443;28;20059;-64
2023/09/29 02:25:33;;;;;;;23.42;18.33;;;;;;;;;;2104888;28;20036;-64
2023/09/29 02:26:52;;;;;;;26.20;18.60;;;;;;;;;;2103363;28;20443;-64
2023/09/29 02:28:11;;;;;;;24.30;18.83;;;;;;;;;;2105074;28;20028;-64
2023/09/29 02:29:30;;;;;;;21.45;17.90;;;;;;;;;;2104085;28;20020;-64
2023/09/29 02:30:49;;;;;;;22.10;18.08;;;;;;;;;;2104181;28;20492;-64
2023/09/29 02:32:08;;;;;;;26.42;17.80;;;;;;;;;;2105320;28;20115;-64
2023/09/29 02:33:28;;;;;;;23.88;17.90;;;;;;;;;;2104375;28;20036;-65
2023/09/29 02:34:47;;;;;;;22.75;17.58;;;;;;;;;;2104317;28;20028;-65
2023/09/29 02:36:06;;;;;;;21.98;17.33;;;;;;;;;;2103271;28;20046;-64
2023/09/29 02:37:25;;;;;;;20.23;17.63;;;;;;;;;;2102554;28;20036;-64
2023/09/29 02:38:44;;;;;;;17.92;16.02;;;;;;;;;;2103083;28;20036;-64
2023/09/29 02:40:22;;;;;;;23.13;17.88;;;;;;;;;;2105582;28;20346;-64
2023/09/29 02:41:41;;;;;;;21.30;16.98;;;;;;;;;;2102804;28;20028;-64
2023/09/29 02:43:00;;;;;;;20.35;16.77;;;;;;;;;;2104447;28;20032;-64
2023/09/29 02:44:19;;;;;;;23.70;17.67;;;;;;;;;;2103613;28;20028;-64
2023/09/29 02:45:40;;;;;;;25.65;17.65;;;;;;;;;;2101216;28;20036;-64
2023/09/29 02:46:58;;;;;;;19.75;17.05;;;;;;;;;;2104513;28;20048;-64
2023/09/29 02:48:17;;;;;;;24.30;17.73;;;;;;;;;;2103010;28;20769;-65
2023/09/29 02:49:36;;;;;;;21.33;17.52;;;;;;;;;;2102784;28;20028;-64
2023/09/29 02:50:55;;;;;;;21.95;17.67;;;;;;;;;;2103270;28;20184;-65
2023/09/29 02:52:15;;;;;;;23.17;17.55;;;;;;;;;;2104844;28;20028;-66
2023/09/29 02:53:34;;;;;;;27.67;19.30;;;;;;;;;;2104372;28;20020;-64
2023/09/29 02:54:57;;;;;;;25.45;18.40;;;;;;;;;;2104268;28;20025;-64
2023/09/29 02:56:16;;;;;;;23.38;18.02;;;;;;;;;;2105227;28;20099;-64
2023/09/29 02:57:35;;;;;;;23.35;18.08;;;;;;;;;;2101682;28;20666;-65
2023/09/29 02:58:54;;;;;;;21.25;18.85;;;;;;;;;;2102171;28;20040;-64
2023/09/29 03:00:21;;;;;;;24.08;19.40;;;;;;;;;;2103040;28;20029;-64
2023/09/29 03:01:40;;;;;;;23.85;18.17;;;;;;;;;;2103021;28;20472;-65
2023/09/29 03:03:00;;;;;;;21.20;17.90;;;;;;;;;;2104153;28;20484;-64
2023/09/29 03:04:19;;;;;;;21.75;18.40;;;;;;;;;;2103996;28;20040;-65
2023/09/29 03:05:43;;;;;;;23.17;19.00;;;;;;;;;;2103212;28;20500;-64
2023/09/29 03:07:01;;;;;;;21.65;17.52;;;;;;;;;;2101576;28;20036;-65
2023/09/29 03:08:20;;;;;;;20.98;17.77;;;;;;;;;;2102715;28;20028;-64
2023/09/29 03:09:39;;;;;;;25.45;18.17;;;;;;;;;;2103209;28;20032;-64
2023/09/29 03:10:59;;;;;;;23.13;18.33;;;;;;;;;;2101446;28;20020;-64
2023/09/29 03:12:17;;;;;;;24.77;18.25;;;;;;;;;;2103975;28;20020;-65
2023/09/29 03:13:43;;;;;;;23.23;18.63;;;;;;;;;;2103339;28;20032;-64
2023/09/29 03:15:02;;;;;;;24.30;18.77;;;;;;;;;;2102427;28;20024;-64
2023/09/29 03:16:24;;;;;;;19.52;17.52;;;;;;;;;;2103608;28;20028;-64
2023/09/29 03:17:44;;;;;;;21.45;17.48;;;;;;;;;;2103587;28;20025;-65
2023/09/29 03:19:03;;;;;;;19.30;16.80;;;;;;;;;;2104108;28;20401;-65
2023/09/29 03:20:22;;;;;;;25.02;17.63;;;;;;;;;;2103990;28;20036;-65
2023/09/29 03:21:41;;;;;;;21.17;17.00;;;;;;;;;;2102477;28;20055;-64
2023/09/29 03:23:00;;;;;;;21.20;17.42;;;;;;;;;;2101574;28;20028;-65
2023/09/29 03:24:20;;;;;;;21.85;18.23;;;;;;;;;;2103548;28;20036;-65
2023/09/29 03:25:39;;;;;;;24.05;18.67;;;;;;;;;;2104189;28;20020;-64
2023/09/29 03:26:58;;;;;;;22.65;18.40;;;;;;;;;;2102716;28;20055;-64
2023/09/29 03:28:17;;;;;;;25.65;18.30;;;;;;;;;;2104275;28;20036;-65
2023/09/29 03:29:36;;;;;;;22.45;17.60;;;;;;;;;;2103035;28;20499;-64
2023/09/29 03:30:55;;;;;;;24.00;18.92;;;;;;;;;;2101722;28;20028;-65
2023/09/29 03:32:14;;;;;;;21.30;18.23;;;;;;;;;;2103603;28;20020;-65
2023/09/29 03:33:34;;;;;;;23.08;18.10;;;;;;;;;;2102426;28;20020;-64
2023/09/29 03:34:53;;;;;;;23.48;18.55;;;;;;;;;;2103547;28;20021;-65
2023/09/29 03:36:12;;;;;;;23.17;17.77;;;;;;;;;;2104038;28;20032;-64
2023/09/29 03:37:38;;;;;;;24.92;18.33;;;;;;;;;;2104239;28;20044;-65
2023/09/29 03:38:59;;;;;;;24.20;18.52;;;;;;;;;;2104397;28;20497;-65
2023/09/29 03:40:18;;;;;;;26.45;20.17;;;;;;;;;;2106501;28;20103;-65
2023/09/29 03:41:37;;;;;;;25.30;19.10;;;;;;;;;;2104063;28;20091;-65
2023/09/29 03:42:56;;;;;;;28.98;19.85;;;;;;;;;;2101539;28;20532;-65
2023/09/29 03:44:15;;;;;;;23.73;19.90;;;;;;;;;;2103464;28;20024;-65
2023/09/29 03:45:36;;;;;;;26.13;18.27;;;;;;;;;;2105050;28;20056;-65
2023/09/29 03:46:56;;;;;;;22.30;18.52;;;;;;;;;;2105417;28;20016;-65
2023/09/29 03:48:15;;;;;;;26.90;19.90;;;;;;;;;;2106383;28;20029;-66
2023/09/29 03:49:35;;;;;;;24.17;19.73;;;;;;;;;;2104272;28;20016;-64
2023/09/29 03:50:54;;;;;;;23.05;17.83;;;;;;;;;;2104977;28;20125;-64
2023/09/29 03:52:14;;;;;;;22.13;18.33;;;;;;;;;;2105599;28;21636;-64
2023/09/29 03:53:33;;;;;;;21.77;19.45;;;;;;;;;;2104537;28;20032;-65
2023/09/29 03:54:52;;;;;;;24.63;18.48;;;;;;;;;;2104076;28;20020;-65
2023/09/29 03:56:11;;;;;;;22.50;17.52;;;;;;;;;;2104750;28;20060;-65
2023/09/29 03:57:31;;;;;;;26.70;18.65;;;;;;;;;;2103637;28;20028;-65
2023/09/29 03:58:51;;;;;;;24.30;18.80;;;;;;;;;;2105332;28;20028;-65
2023/09/29 04:00:14;;;;;;;26.70;19.05;;;;;;;;;;2105131;28;20500;-64
2023/09/29 04:01:34;;;;;;;22.65;18.05;;;;;;;;;;2104645;28;20028;-65
2023/09/29 04:02:53;;;;;;;22.92;17.63;;;;;;;;;;2104606;28;20477;-64
2023/09/29 04:04:12;;;;;;;19.75;16.83;;;;;;;;;;2105083;28;20031;-65
2023/09/29 04:05:31;;;;;;;23.08;17.55;;;;;;;;;;2104922;28;20071;-65
2023/09/29 04:06:50;;;;;;;19.95;16.00;;;;;;;;;;2105732;28;20031;-65
2023/09/29 04:08:09;;;;;;;19.08;15.68;;;;;;;;;;2103570;28;20451;-65
2023/09/29 04:09:28;;;;;;;21.55;16.38;;;;;;;;;;2099076;28;20061;-65
2023/09/29 04:10:46;;;;;;;23.95;17.35;;;;;;;;;;2100316;28;21234;-65
2023/09/29 04:12:05;;;;;;;19.45;16.10;;;;;;;;;;2103429;28;20051;-65
2023/09/29 04:13:24;;;;;;;24.30;16.98;;;;;;;;;;2100638;28;20040;-65
2023/09/29 04:14:43;;;;;;;23.60;17.88;;;;;;;;;;2101619;28;20396;-65
2023/09/29 04:16:06;;;;;;;23.42;18.77;;;;;;;;;;2102918;28;20027;-65
2023/09/29 04:17:25;;;;;;;24.55;18.40;;;;;;;;;;2101646;28;20024;-65
2023/09/29 04:18:44;;;;;;;25.23;18.52;;;;;;;;;;2101455;28;20063;-65
2023/09/29 04:20:04;;;;;;;22.15;18.48;;;;;;;;;;2101160;28;20650;-65
2023/09/29 04:21:23;;;;;;;26.17;18.15;;;;;;;;;;2100154;28;20037;-65
2023/09/29 04:22:43;;;;;;;23.60;18.42;;;;;;;;;;2103682;28;20024;-65
2023/09/29 04:24:02;;;;;;;24.77;18.50;;;;;;;;;;2105579;28;20032;-64
2023/09/29 04:25:20;;;;;;;24.90;18.20;;;;;;;;;;2104700;28;20024;-65
2023/09/29 04:26:40;;;;;;;23.10;17.98;;;;;;;;;;2101627;28;20028;-65
2023/09/29 04:27:59;;;;;;;22.80;17.00;;;;;;;;;;2102978;28;20029;-65
2023/09/29 04:29:18;;;;;;;23.58;17.67;;;;;;;;;;2104277;28;20032;-65
2023/09/29 04:30:37;;;;;;;25.30;18.52;;;;;;;;;;2103309;28;20032;-65
2023/09/29 04:31:56;;;;;;;26.10;18.85;;;;;;;;;;2105292;28;20377;-64
2023/09/29 04:33:15;;;;;;;19.00;17.00;;;;;;;;;;2097552;28;20040;-65
2023/09/29 04:34:34;;;;;;;29.50;18.17;;;;;;;;;;2104452;28;20032;-65
2023/09/29 04:35:52;;;;;;;22.63;18.65;;;;;;;;;;2103596;28;20024;-65
2023/09/29 04:37:11;;;;;;;20.13;18.02;;;;;;;;;;2102332;28;20131;-67
2023/09/29 04:38:30;;;;;;;24.42;17.63;;;;;;;;;;2103936;28;20060;-65
2023/09/29 04:39:49;;;;;;;25.25;19.23;;;;;;;;;;2106077;28;20035;-65
2023/09/29 04:41:08;;;;;;;26.45;19.15;;;;;;;;;;2104423;28;20399;-65
2023/09/29 04:42:28;;;;;;;26.38;20.02;;;;;;;;;;2105447;28;20040;-65
2023/09/29 04:43:47;;;;;;;24.55;19.13;;;;;;;;;;2103784;28;20028;-65
2023/09/29 04:45:06;;;;;;;31.08;19.33;;;;;;;;;;2104079;28;20040;-64
2023/09/29 04:46:25;;;;;;;23.08;18.90;;;;;;;;;;2102329;28;20032;-65
2023/09/29 04:47:44;;;;;;;24.77;19.05;;;;;;;;;;2104746;28;20103;-65
2023/09/29 04:49:03;;;;;;;25.92;18.83;;;;;;;;;;2104014;28;20024;-65
2023/09/29 04:50:22;;;;;;;25.35;17.83;;;;;;;;;;2103176;28;20024;-64
2023/09/29 04:51:43;;;;;;;26.08;18.90;;;;;;;;;;2100733;28;20052;-65
2023/09/29 04:53:02;;;;;;;26.17;20.15;;;;;;;;;;2103295;28;20060;-65
2023/09/29 04:54:21;;;;;;;26.95;19.35;;;;;;;;;;2102153;28;20031;-65
2023/09/29 04:55:40;;;;;;;25.27;19.70;;;;;;;;;;2105087;28;20028;-65
2023/09/29 04:56:59;;;;;;;20.80;18.33;;;;;;;;;;2101687;28;20404;-65
2023/09/29 04:58:18;;;;;;;23.88;18.52;;;;;;;;;;2101933;28;20036;-65
2023/09/29 04:59:38;;;;;;;20.55;18.13;;;;;;;;;;2102945;28;20032;-64
2023/09/29 05:00:57;;;;;;;21.20;18.10;;;;;;;;;;2103603;28;20020;-65
2023/09/29 05:02:16;;;;;;;24.05;18.98;;;;;;;;;;2102773;28;20054;-64
2023/09/29 05:03:34;;;;;;;22.90;18.25;;;;;;;;;;2103697;28;20024;-64
2023/09/29 05:04:53;;;;;;;22.90;17.42;;;;;;;;;;2102384;28;20024;-64
2023/09/29 05:06:15;;;;;;;19.55;17.50;;;;;;;;;;2101625;28;20431;-67
2023/09/29 05:07:34;;;;;;;19.25;16.63;;;;;;;;;;2102219;28;20024;-64
2023/09/29 05:08:53;;;;;;;21.92;16.88;;;;;;;;;;2103881;28;20020;-64
2023/09/29 05:10:15;;;;;;;19.85;16.67;;;;;;;;;;2101236;28;20032;-65
2023/09/29 05:11:34;;;;;;;26.05;17.45;;;;;;;;;;2103059;28;20560;-65
2023/09/29 05:12:53;;;;;;;20.30;16.25;;;;;;;;;;2102886;28;20032;-64
2023/09/29 05:14:13;;;;;;;21.10;16.63;;;;;;;;;;2104269;28;20028;-65
2023/09/29 05:15:32;;;;;;;21.45;16.55;;;;;;;;;;2103955;28;20024;-64
2023/09/29 05:16:53;;;;;;;17.90;16.05;;;;;;;;;;2104566;28;20024;-65
2023/09/29 05:18:12;;;;;;;22.45;16.40;;;;;;;;;;2100920;28;20492;-65
2023/09/29 05:19:31;;;;;;;19.92;15.85;;;;;;;;;;2100131;28;20024;-65
2023/09/29 05:20:50;;;;;;;20.17;15.60;;;;;;;;;;2101294;28;20027;-64
2023/09/29 05:22:09;;;;;;;18.42;16.38;;;;;;;;;;2104484;28;20035;-65
2023/09/29 05:23:28;;;;;;;18.40;16.23;;;;;;;;;;2100958;28;20040;-66
2023/09/29 05:24:47;;;;;;;21.73;16.95;;;;;;;;;;2102593;28;20024;-67
2023/09/29 05:26:07;;;;;;;24.70;17.00;;;;;;;;;;2101930;28;20475;-67
2023/09/29 05:27:29;;;;;;;20.10;16.80;;;;;;;;;;2100295;28;20024;-67
2023/09/29 05:28:50;;;;;;;22.60;16.75;;;;;;;;;;2102808;28;20017;-66
2023/09/29 05:30:09;;;;;;;24.55;18.00;;;;;;;;;;2098699;28;20044;-67
2023/09/29 05:31:28;;;;;;;23.83;17.75;;;;;;;;;;2102084;28;20055;-67
2023/09/29 05:32:47;;;;;;;24.48;17.73;;;;;;;;;;2103433;28;20036;-68
2023/09/29 05:34:06;;;;;;;18.05;15.95;;;;;;;;;;2103068;28;20024;-67
2023/09/29 05:35:25;;;;;;;20.33;16.38;;;;;;;;;;2101775;28;20397;-67
2023/09/29 05:36:45;;;;;;;22.08;16.35;;;;;;;;;;2097252;28;20131;-67
2023/09/29 05:38:04;;;;;;;18.33;15.55;;;;;;;;;;2101898;28;20036;-67
2023/09/29 05:39:23;;;;;;;18.50;15.73;;;;;;;;;;2101703;28;20028;-66
2023/09/29 05:40:42;;;;;;;21.42;15.88;;;;;;;;;;2104194;28;20036;-66
2023/09/29 05:42:01;;;;;;;18.17;14.52;;;;;;;;;;2104483;28;20060;-66
2023/09/29 05:43:20;;;;;;;20.20;14.85;;;;;;;;;;2103915;28;20032;-66
2023/09/29 05:44:39;;;;;;;16.88;14.48;;;;;;;;;;2103755;28;20640;-67
2023/09/29 05:45:58;;;;;;;20.38;15.32;;;;;;;;;;2104618;28;20050;-66
2023/09/29 05:47:17;;;;;;;21.88;15.27;;;;;;;;;;2101415;28;20025;-67
2023/09/29 05:48:37;;;;;;;22.40;14.68;;;;;;;;;;2102644;28;20099;-66
2023/09/29 05:49:56;;;;;;;25.20;14.77;;;;;;;;;;2103347;28;20124;-67
2023/09/29 05:51:15;;;;;;;19.10;14.13;;;;;;;;;;2102905;28;20028;-68
2023/09/29 05:52:35;;;;;;;19.00;14.10;;;;;;;;;;2102613;28;20427;-67
2023/09/29 05:53:54;;;;;;;17.00;14.27;;;;;;;;;;2102578;28;20028;-67
2023/09/29 05:55:13;;;;;;;19.90;14.88;;;;;;;;;;2103361;28;20107;-67
2023/09/29 05:56:32;;;;;;;20.60;14.88;;;;;;;;;;2102720;28;20032;-67
2023/09/29 05:57:51;;;;;;;21.05;15.30;;;;;;;;;;2104446;28;20031;-67
2023/09/29 05:59:10;;;;;;;20.15;14.45;;;;;;;;;;2103014;28;20099;-66
2023/09/29 06:00:29;;;;;;;19.67;14.15;;;;;;;;;;2104238;28;20527;-67
2023/09/29 06:01:48;;;;;;;18.33;14.48;;;;;;;;;;2104162;28;20071;-67
2023/09/29 06:03:08;;;;;;;18.30;13.98;;;;;;;;;;2104278;28;20488;-67
2023/09/29 06:04:27;;;;;;;22.50;12.73;;;;;;;;;;2104131;28;20032;-67
2023/09/29 06:05:46;;;;;;;16.40;14.07;;;;;;;;;;2105114;28;20036;-67
2023/09/29 06:07:05;;;;;;;19.30;13.15;;;;;;;;;;2103800;28;20024;-67
2023/09/29 06:08:24;;;;;;;19.60;12.75;;;;;;;;;;2102766;28;20024;-67
2023/09/29 06:09:43;;;;;;;14.77;13.13;;;;;;;;;;2104169;28;20028;-67
2023/09/29 06:11:05;;;;;;;13.85;12.35;;;;;;;;;;2105399;28;20020;-67
2023/09/29 06:12:25;;;;;;;16.45;13.13;;;;;;;;;;2104713;28;20032;-67
2023/09/29 06:13:44;;;;;;;14.32;12.82;;;;;;;;;;2103518;28;20020;-67
2023/09/29 06:15:03;;;;;;;17.42;14.02;;;;;;;;;;2099770;28;20016;-67
2023/09/29 06:16:22;;;;;;;15.68;12.60;;;;;;;;;;2100562;28;20024;-66
2023/09/29 06:17:41;;;;;;;16.88;12.82;;;;;;;;;;2102541;28;20043;-67
2023/09/29 06:19:00;;;;;;;13.45;12.07;;;;;;;;;;2104466;28;20048;-67
2023/09/29 06:20:19;;;;;;;16.73;12.52;;;;;;;;;;2104065;28;20067;-66
2023/09/29 06:21:39;;;;;;;13.95;12.38;;;;;;;;;;2103697;28;20027;-67
2023/09/29 06:22:58;;;;;;;18.05;12.75;;;;;;;;;;2104202;28;20028;-67
2023/09/29 06:24:17;;;;;;;13.68;11.27;;;;;;;;;;2104020;28;20024;-67
2023/09/29 06:25:36;;;;;;;15.48;13.05;;;;;;;;;;2105148;28;20473;-67
2023/09/29 06:26:55;;;;;;;16.48;12.45;;;;;;;;;;2104144;28;20060;-68
2023/09/29 06:28:14;;;;;;;15.20;12.13;;;;;;;;;;2104115;28;20055;-67
2023/09/29 06:29:33;;;;;;;16.80;12.93;;;;;;;;;;2099340;28;20060;-67
2023/09/29 06:30:53;;;;;;;16.98;12.48;;;;;;;;;;2102238;28;20028;-67
2023/09/29 06:32:12;;;;;;;19.70;12.82;;;;;;;;;;2104565;28;20060;-68
2023/09/29 06:33:31;;;;;;;13.63;12.07;;;;;;;;;;2103372;28;20517;-67
2023/09/29 06:34:50;;;;;;;17.35;12.38;;;;;;;;;;2103729;28;20405;-67
2023/09/29 06:36:09;;;;;;;18.63;12.35;;;;;;;;;;2103366;28;20036;-67
2023/09/29 06:37:28;;;;;;;15.60;11.75;;;;;;;;;;2104141;28;20417;-66
2023/09/29 06:38:48;;;;;;;16.75;11.75;;;;;;;;;;2103059;28;20031;-70
2023/09/29 06:40:10;;;;;;;14.35;11.18;;;;;;;;;;2102962;28;20494;-68
2023/09/29 06:41:29;;;;;;;14.68;12.10;;;;;;;;;;2103203;28;20036;-67
2023/09/29 06:42:48;;;;;;;17.45;12.20;;;;;;;;;;2103517;28;20099;-67
2023/09/29 06:44:07;;;;;;;19.05;12.00;;;;;;;;;;2104994;28;20029;-67
2023/09/29 06:45:29;;;;;;;15.52;11.70;;;;;;;;;;2103626;28;20024;-67
2023/09/29 06:46:48;;;;;;;17.73;11.68;;;;;;;;;;2104982;28;20024;-67
2023/09/29 06:48:07;;;;;;;16.02;11.20;;;;;;;;;;2105054;28;20032;-67
2023/09/29 06:49:26;;;;;;;14.95;11.32;;;;;;;;;;2102664;28;20032;-67
2023/09/29 06:50:45;;;;;;;14.07;11.10;;;;;;;;;;2102152;28;20024;-66
2023/09/29 06:52:04;;;;;;;16.17;11.55;;;;;;;;;;2102674;28;20063;-67
2023/09/29 06:53:23;;;;;;;14.95;11.52;;;;;;;;;;2104182;28;20138;-67
2023/09/29 06:54:41;;;;;;;15.75;10.65;;;;;;;;;;2103704;28;20024;-66
2023/09/29 06:56:00;;;;;;;15.98;11.48;;;;;;;;;;2102613;28;20451;-67
2023/09/29 06:57:20;;;;;;;16.30;11.18;;;;;;;;;;2103380;28;20024;-67
2023/09/29 06:58:39;;;;;;;12.60;10.93;;;;;;;;;;2102556;28;20028;-67
2023/09/29 06:59:58;;;;;;;12.15;10.30;;;;;;;;;;2102029;28;20493;-69
2023/09/29 07:01:17;;;;;;;17.20;10.57;;;;;;;;;;2103854;28;20480;-67
2023/09/29 07:02:36;;;;;;;14.85;10.55;;;;;;;;;;2104407;28;20036;-68
2023/09/29 07:03:55;;;;;;;12.23;9.75;;;;;;;;;;2104377;28;20392;-68
2023/09/29 07:05:15;;;;;;;15.27;10.80;;;;;;;;;;2103691;28;20580;-67
2023/09/29 07:06:34;;;;;;;13.90;10.55;;;;;;;;;;2103823;28;20028;-67
2023/09/29 07:07:54;;;;;;;17.70;11.38;;;;;;;;;;2102334;28;20024;-67
2023/09/29 07:09:13;;;;;;;17.83;10.80;;;;;;;;;;2103455;28;20025;-68
2023/09/29 07:10:33;;;;;;;13.32;10.07;;;;;;;;;;2103179;28;20020;-67
2023/09/29 07:11:52;;;;;;;18.58;10.35;;;;;;;;;;2103722;28;20131;-67
2023/09/29 07:13:11;;;;;;;11.38;9.70;;;;;;;;;;2104151;28;20032;-66
2023/09/29 07:14:30;;;;;;;17.13;10.75;;;;;;;;;;2104484;28;20024;-67
2023/09/29 07:15:49;;;;;;;12.38;9.55;;;;;;;;;;2104842;28;20439;-67
2023/09/29 07:17:07;;;;;;;13.80;9.48;;;;;;;;;;2104197;28;20107;-68
2023/09/29 07:18:26;;;;;;;12.50;9.25;;;;;;;;;;2104406;28;20040;-66
2023/09/29 07:19:46;;;;;;;11.88;8.95;;;;;;;;;;2105508;28;20028;-67
2023/09/29 07:21:05;;;;;;;14.95;9.43;;;;;;;;;;2105073;28;20497;-67
2023/09/29 07:22:24;;;;;;;12.05;9.20;;;;;;;;;;2105630;28;20043;-70
2023/09/29 07:23:43;;;;;;;13.98;9.38;;;;;;;;;;2104815;28;20027;-67
2023/09/29 07:25:02;;;;;;;13.32;9.63;;;;;;;;;;2105457;28;20029;-67
2023/09/29 07:26:21;;;;;;;11.05;8.98;;;;;;;;;;2105821;28;20131;-67
2023/09/29 07:27:40;;;;;;;10.27;8.18;;;;;;;;;;2105561;28;20032;-68
2023/09/29 07:29:01;;;;;;;13.95;9.00;;;;;;;;;;2104508;28;20059;-67
2023/09/29 07:30:20;;;;;;;12.38;8.13;;;;;;;;;;2104216;28;20536;-67
2023/09/29 07:31:46;;;;;;;12.60;7.95;;;;;;;;;;2103339;28;20041;-67
2023/09/29 07:33:05;;;;;;;9.32;8.10;;;;;;;;;;2105299;28;20393;-67
2023/09/29 07:34:27;;;;;;;11.25;7.80;;;;;;;;;;2106207;28;20028;-67
2023/09/29 07:35:46;;;;;;;10.95;8.18;;;;;;;;;;2104329;28;20028;-68
2023/09/29 07:37:04;;;;;;;13.52;8.30;;;;;;;;;;2103558;28;20044;-67
2023/09/29 07:38:23;;;;;;;13.70;8.68;;;;;;;;;;2105009;28;20071;-67
2023/09/29 07:39:42;;;;;;;12.73;8.60;;;;;;;;;;2104849;28;20384;-67
2023/09/29 07:41:04;;;;;;;14.30;8.45;;;;;;;;;;2104350;28;20099;-67
2023/09/29 07:42:23;;;;;;;14.95;9.48;;;;;;;;;;2103247;28;20115;-67
2023/09/29 07:43:43;;;;;;;10.57;8.15;;;;;;;;;;2106156;28;20115;-66